Farafra, Egypt
Current Conditions -  °F | °C
As of 2:00 AM on Monday 26 Jan 2015 (Local Time) from HESG Reporting Station
Clear Clear  
Wind Chill: 13°   Ceiling: Unl
Heat Index: 13°   Visibility: 6mi
Dew Point:   Wind: 3mph
Humidity: 77%   Direction: 310°NW
Pressure: 29.94"   Gusts: NA
Location:  27.05°N, 27.47°E
Report Text: HESG 260000Z 31003KT CAVOK 13/09 Q1014 NOSIG
Loading
Personal Weather Stations






























Interactive Weather Map New forecast layout! Learn more

10-Day Weather Forecast

Advertisements
Track Severe Weather on mobile